Traer, IA

7:43 PM CDT on September 20, 2014 (GMT -0500)
Waterloo Municipal | Change Station
CLOSE
Current Station
Airport
Location: Waterloo,
Elevation: 873 ft
Nearby Weather Stations

Elev 873 ft 42.55 °N, 92.40 °W | Updated 49 minutes ago

Clear
Clear
74 °F
Feels Like 74 °F
N
7
Wind Variable Wind from WSW

Today
High -- | Low -- °F
--% Chance of Precip.
Yesterday
High -- | Low -- °F
Precip. -- in
6:55 AM 7:10 PM
Waning Crescent, 9% visible
Pressure 29.77 in
Visibility 10.0 miles
Clouds Clear
Dew Point 57 °F
Humidity 55%
Rainfall 0.21 in
Snow Depth Not available.
UV 0 out of 12
Pollen 3.20 out of 12
Air Quality Not available.
Flu Activity Not available.
METAR KALO 202354Z 25006KT 10SM CLR 23/14 A2978 RMK AO2 SLP079 T02330139 10278 20233 56009

More Conditions Fewer Conditions

Pressure 29.77 in
Visibility 10.0 miles
Clouds Clear
Dew Point 57 °F
Humidity 55%
Rainfall 0.21 in
Snow Depth Not available.
UV 0 out of 12
Pollen 3.20 out of 12
Air Quality Not available.
Flu Activity Not available.
METAR KALO 202354Z 25006KT 10SM CLR 23/14 A2978 RMK AO2 SLP079 T02330139 10278 20233 56009

More Conditions Fewer Conditions

10-Day Weather Forecast

Almanac

Astronomy

Sep. 20, 2014 Rise Set
Actual Time 6:55 AM CDT 7:10 PM CDT
Civil Twilight 6:27 AM CDT 7:38 PM CDT
Nautical Twilight 5:54 AM CDT 8:11 PM CDT
Astronomical Twilight 5:20 AM CDT 8:44 PM CDT
Moon 3:31 AM CDT (9/20) 5:16 PM CDT (9/20)
Length of Visible Light 13h 11m
Length of Day
12h 15m
Tomorrow will be 2m 49s shorter.
Waning Crescent, 9% of the Moon is Illuminated
Today
Waning Crescent
Sep 24
New
Oct 1
First Quarter
Oct 8
Full
Oct 15
Last Quarter

Today's Extremes

State Highs State Lows

Community

WunderPhotos

Upload Photos

1,755,000 photos uploaded!

WunderBlogs® & News

Nearby

Snow Depth

Station Depth Elevation
No new snow has been reported.

Earthquake Activity

City Distance Mag. Time & Date
No recent earthquake activity has been reported nearby.
Minimum magnitude displayed is 2.5.

Coastal Water Temperatures

Place Temperature
No Stations Reporting

Nearby Weather Stations